Portada
METAR-TAF:

METAR-TAF

Aeropuertos :

Fort Madison Municipal Airport

Fort Madison, Iowa, Estados Unidos

latitud: 40-40N, longitud: 091-20W, altitud: 221 m

Observación

El informe se hizo hace 11 minutos, a las 20:15 UTC
Viento 5 kt con dirección variable
Temperatura 31°C
Humedad 59%
Presión 1022 hPa
Visibilidad: 16.1 km
Cielo nuboso a una altura de 3700 ft
Cielo nuboso a una altura de 4600 ft
Cielo nuboso a una altura de 6000 ft

METAR: KFSW 192015Z AUTO VRB05KT 10SM BKN037 BKN046 BKN060 31/22 A3017 RMK AO2

Hora: 15:26 (20:26 UTC)


TAF: falta

Observaciones y pronósticos meteorológicos de más de 4000 aeropuertos (mensajes METAR y TAF).

Los puntos amarillos y rojos representan las estaciones disponibles.

Ponga el ratón en el punto deseado para ver el nombre de la estación.

Haga clic para ver las observaciones y los pronósticos meteorológicos.

Para cambiar el mapa : haga clic en los botones verdes con una cruz de color negro para hacer un zoom, en el botón verde con un guión para alejar o en las flechas verdes para mapas adyacentes.


METAR-TAF: